Time;durP1;ratioP1;P1;durP2;ratioP2;P2;SDS_P1;SDS_P2;PMS_P1;PMS_P2;Temp;Humidity;BMP_temperature;BMP_pressure;BME280_temperature;BME280_humidity;BME280_pressure;Samples;Min_cycle;Max_cycle;Signal;HPM_P1;HPM_P2
2023/04/28 00:00:46;;;;;;;6.63;3.83;;;9.40;99.90;;;;;;5074219;28;20107;-79
2023/04/28 00:03:12;;;;;;;4.63;3.22;;;9.40;99.90;;;;;;5075038;28;20021;-61
2023/04/28 00:05:37;;;;;;;11.47;4.27;;;9.40;99.90;;;;;;5078266;28;20028;-61
2023/04/28 00:08:03;;;;;;;9.20;3.60;;;9.40;99.90;;;;;;5076896;28;20027;-61
2023/04/28 00:10:33;;;;;;;6.03;3.63;;;9.40;99.90;;;;;;5078618;28;20028;-62
2023/04/28 00:12:59;;;;;;;12.55;4.00;;;9.40;99.90;;;;;;5078165;28;20025;-62
2023/04/28 00:15:25;;;;;;;5.60;3.15;;;9.40;99.90;;;;;;5078576;28;20032;-65
2023/04/28 00:17:51;;;;;;;9.00;3.63;;;9.40;99.90;;;;;;5077926;28;20778;-62
2023/04/28 00:20:16;;;;;;;9.53;4.10;;;9.30;99.90;;;;;;5068109;28;20082;-62
2023/04/28 00:22:42;;;;;;;7.47;3.97;;;9.40;99.90;;;;;;5071354;28;20032;-61
2023/04/28 00:25:08;;;;;;;8.67;3.80;;;9.40;99.90;;;;;;5073113;28;20033;-77
2023/04/28 00:27:34;;;;;;;6.07;3.37;;;9.30;99.90;;;;;;5076210;28;20033;-62
2023/04/28 00:30:01;;;;;;;6.95;3.95;;;9.30;99.90;;;;;;5067404;28;20044;-61
2023/04/28 00:32:26;;;;;;;5.93;3.10;;;9.30;99.90;;;;;;5073356;28;20024;-63
2023/04/28 00:34:52;;;;;;;11.30;4.13;;;9.40;99.90;;;;;;5072750;28;20035;-62
2023/04/28 00:37:18;;;;;;;4.47;3.28;;;9.40;99.90;;;;;;5077207;28;20074;-62
2023/04/28 00:39:47;;;;;;;7.28;3.40;;;9.40;99.90;;;;;;5067653;28;20078;-61
2023/04/28 00:42:14;;;;;;;6.47;3.35;;;9.40;99.90;;;;;;5069605;28;20037;-61
2023/04/28 00:44:40;;;;;;;7.03;3.38;;;9.40;99.90;;;;;;5070647;28;20360;-61
2023/04/28 00:47:08;;;;;;;7.95;3.42;;;9.40;99.90;;;;;;5075977;28;20043;-62
2023/04/28 00:49:35;;;;;;;6.90;3.50;;;9.40;99.90;;;;;;5072964;28;20040;-61
2023/04/28 00:52:04;;;;;;;4.57;3.40;;;9.40;99.90;;;;;;5068971;28;20056;-61
2023/04/28 00:54:34;;;;;;;7.40;3.50;;;9.30;99.90;;;;;;5076267;28;20032;-62
2023/04/28 00:57:04;;;;;;;10.98;3.90;;;9.30;99.90;;;;;;5076455;28;20051;-61
2023/04/28 00:59:30;;;;;;;8.13;3.83;;;9.20;99.90;;;;;;5067265;28;20033;-61
2023/04/28 01:01:56;;;;;;;6.95;3.53;;;9.30;99.90;;;;;;5076506;28;20437;-63
2023/04/28 01:04:22;;;;;;;9.07;3.30;;;9.30;99.90;;;;;;5076825;28;20032;-61
2023/04/28 01:06:49;;;;;;;5.78;3.22;;;9.20;99.90;;;;;;5065111;28;20029;-62
2023/04/28 01:09:15;;;;;;;4.65;3.00;;;9.20;99.90;;;;;;5067714;28;20028;-61
2023/04/28 01:11:41;;;;;;;7.90;3.97;;;9.20;99.90;;;;;;5075871;28;20027;-61
2023/04/28 01:14:07;;;;;;;8.90;3.50;;;9.20;99.90;;;;;;5076289;28;20524;-62
2023/04/28 01:16:33;;;;;;;5.90;3.00;;;9.20;99.90;;;;;;5066130;28;20012;-61
2023/04/28 01:18:59;;;;;;;7.68;3.40;;;9.10;99.90;;;;;;5075667;28;20086;-77
2023/04/28 01:21:28;;;;;;;5.70;3.35;;;9.20;99.90;;;;;;5070092;28;20446;-62
2023/04/28 01:23:56;;;;;;;6.22;3.25;;;9.20;99.90;;;;;;5075596;28;20040;-62
2023/04/28 01:26:22;;;;;;;10.25;3.42;;;9.20;99.90;;;;;;5076094;28;20028;-61
2023/04/28 01:28:48;;;;;;;6.20;3.60;;;9.20;99.90;;;;;;5074316;28;20174;-62
2023/04/28 01:31:13;;;;;;;11.00;3.03;;;9.20;99.90;;;;;;5075898;28;20039;-61
2023/04/28 01:33:39;;;;;;;6.45;3.67;;;9.10;99.90;;;;;;5075069;28;20074;-61
2023/04/28 01:36:05;;;;;;;6.83;3.40;;;9.10;99.90;;;;;;5074978;28;20028;-63
2023/04/28 01:38:31;;;;;;;9.50;3.50;;;9.10;99.90;;;;;;5074529;28;20026;-61
2023/04/28 01:40:57;;;;;;;5.80;3.43;;;9.10;99.90;;;;;;5075527;28;20032;-61
2023/04/28 01:43:23;;;;;;;8.02;3.03;;;9.10;99.90;;;;;;5076589;28;20021;-61
2023/04/28 01:45:48;;;;;;;8.47;4.40;;;9.10;99.90;;;;;;5074002;28;20445;-62
2023/04/28 01:48:14;;;;;;;8.00;3.70;;;9.10;99.90;;;;;;5075808;28;20064;-61
2023/04/28 01:50:40;;;;;;;6.43;3.33;;;9.10;99.90;;;;;;5060584;28;20029;-62
2023/04/28 01:53:06;;;;;;;8.30;3.10;;;9.00;99.90;;;;;;5075588;28;20091;-61
2023/04/28 01:55:32;;;;;;;7.23;4.10;;;9.00;99.90;;;;;;5108830;28;20013;-62
2023/04/28 01:57:57;;;;;;;5.37;3.53;;;9.00;99.90;;;;;;5075770;28;20040;-61
2023/04/28 02:00:23;;;;;;;6.03;3.53;;;9.00;99.90;;;;;;5076438;28;20024;-61
2023/04/28 02:02:49;;;;;;;6.33;3.60;;;9.00;99.90;;;;;;5075696;28;20024;-76
2023/04/28 02:05:14;;;;;;;8.10;4.17;;;9.00;99.90;;;;;;5076190;28;20052;-61
2023/04/28 02:07:40;;;;;;;6.65;3.70;;;9.00;99.90;;;;;;5075499;28;20035;-61
2023/04/28 02:10:07;;;;;;;6.63;3.63;;;9.00;99.90;;;;;;5073366;28;20024;-61
2023/04/28 02:12:33;;;;;;;7.07;3.63;;;9.00;99.90;;;;;;5089474;28;20028;-61
2023/04/28 02:14:59;;;;;;;6.90;3.63;;;9.00;99.90;;;;;;5075223;28;20032;-61
2023/04/28 02:17:25;;;;;;;10.32;3.53;;;8.90;99.90;;;;;;5076037;28;20023;-61
2023/04/28 02:19:57;;;;;;;5.30;3.30;;;9.00;99.90;;;;;;5075619;28;20029;-78
2023/04/28 02:22:23;;;;;;;7.20;4.32;;;8.90;99.90;;;;;;5068280;28;20028;-61
2023/04/28 02:24:49;;;;;;;6.87;3.90;;;8.90;99.90;;;;;;5071513;28;20058;-62
2023/04/28 02:27:15;;;;;;;7.00;3.92;;;8.90;99.90;;;;;;5072632;28;20108;-61
2023/04/28 02:29:41;;;;;;;12.77;3.70;;;8.90;99.90;;;;;;5071050;28;20131;-61
2023/04/28 02:32:06;;;;;;;6.13;3.57;;;8.90;99.90;;;;;;5074192;28;20322;-61
2023/04/28 02:34:32;;;;;;;6.93;3.93;;;8.90;99.90;;;;;;5074224;28;20116;-61
2023/04/28 02:36:58;;;;;;;5.53;3.40;;;8.80;99.90;;;;;;5074274;28;20031;-78
2023/04/28 02:39:25;;;;;;;6.37;3.50;;;8.80;99.90;;;;;;5074906;28;20056;-61
2023/04/28 02:41:55;;;;;;;8.10;3.90;;;8.80;99.90;;;;;;5072949;28;20032;-61
2023/04/28 02:44:21;;;;;;;5.40;3.42;;;8.80;99.90;;;;;;5073453;28;20060;-61
2023/04/28 02:46:47;;;;;;;10.20;3.83;;;8.80;99.90;;;;;;5070439;28;20071;-61
2023/04/28 02:49:12;;;;;;;9.55;4.35;;;8.80;99.90;;;;;;5074357;28;20036;-61
2023/04/28 02:51:38;;;;;;;7.07;4.13;;;8.80;99.90;;;;;;5073512;28;20035;-62
2023/04/28 02:54:05;;;;;;;6.28;3.65;;;8.80;99.90;;;;;;5072402;28;20033;-77
2023/04/28 02:56:30;;;;;;;7.25;4.22;;;8.80;99.90;;;;;;5072034;28;20086;-61
2023/04/28 02:58:56;;;;;;;6.67;3.70;;;8.80;99.90;;;;;;5069461;28;20365;-61
2023/04/28 03:01:22;;;;;;;6.90;4.30;;;8.80;99.90;;;;;;5060564;28;20032;-61
2023/04/28 03:03:48;;;;;;;5.97;3.85;;;8.70;99.90;;;;;;5074622;28;20032;-61
2023/04/28 03:06:13;;;;;;;6.37;3.90;;;8.70;99.90;;;;;;5073123;28;20085;-61
2023/04/28 03:08:39;;;;;;;6.60;4.43;;;8.70;99.90;;;;;;5072320;28;20111;-61
2023/04/28 03:11:05;;;;;;;6.77;4.47;;;8.70;99.90;;;;;;5073623;28;20315;-61
2023/04/28 03:13:31;;;;;;;6.30;3.90;;;8.70;99.90;;;;;;5074173;28;20461;-61
2023/04/28 03:15:56;;;;;;;7.13;4.03;;;8.70;99.90;;;;;;5073052;28;20025;-61
2023/04/28 03:18:22;;;;;;;5.67;4.37;;;8.70;99.90;;;;;;5073148;28;20035;-61
2023/04/28 03:20:49;;;;;;;9.47;4.10;;;8.70;99.90;;;;;;5073080;28;20028;-78
2023/04/28 03:23:15;;;;;;;6.35;3.95;;;8.70;99.90;;;;;;5104970;28;20123;-61
2023/04/28 03:25:41;;;;;;;11.48;5.30;;;8.60;99.90;;;;;;5106306;28;20024;-61
2023/04/28 03:28:06;;;;;;;10.03;4.63;;;8.60;99.90;;;;;;5072720;28;20028;-61
2023/04/28 03:30:32;;;;;;;10.30;4.10;;;8.60;99.90;;;;;;5073888;28;20049;-80
2023/04/28 03:32:58;;;;;;;5.33;4.20;;;8.60;99.90;;;;;;5074772;28;20047;-61
2023/04/28 03:35:23;;;;;;;8.70;4.27;;;8.60;99.90;;;;;;5073565;28;20467;-62
2023/04/28 03:37:49;;;;;;;7.83;4.50;;;8.50;99.90;;;;;;5072650;28;20097;-61
2023/04/28 03:40:15;;;;;;;9.03;4.23;;;8.60;99.90;;;;;;5073288;28;20050;-61
2023/04/28 03:42:41;;;;;;;8.47;4.43;;;8.50;99.90;;;;;;5074645;28;20024;-61
2023/04/28 03:45:07;;;;;;;8.63;3.70;;;8.60;99.90;;;;;;5072501;28;20119;-61
2023/04/28 03:47:33;;;;;;;7.45;3.55;;;8.60;99.90;;;;;;5060810;28;20020;-81
2023/04/28 03:49:59;;;;;;;10.90;4.45;;;8.60;99.90;;;;;;5062068;28;20033;-61
2023/04/28 03:52:26;;;;;;;6.93;4.10;;;8.60;99.90;;;;;;5073748;28;20082;-61
2023/04/28 03:54:52;;;;;;;8.88;4.72;;;8.60;99.90;;;;;;5074521;28;20043;-61
2023/04/28 03:57:17;;;;;;;7.47;4.30;;;8.60;99.90;;;;;;5073991;28;20032;-61
2023/04/28 03:59:43;;;;;;;6.67;4.20;;;8.50;99.90;;;;;;5074500;28;20027;-62
2023/04/28 04:02:09;;;;;;;8.30;4.60;;;8.50;99.90;;;;;;5073567;28;20043;-61
2023/04/28 04:04:35;;;;;;;8.47;4.53;;;8.50;99.90;;;;;;5059573;28;20078;-61
2023/04/28 04:07:01;;;;;;;7.13;4.20;;;8.50;99.90;;;;;;5072350;28;20312;-61
2023/04/28 04:09:27;;;;;;;10.00;4.80;;;8.50;99.90;;;;;;5072895;28;20028;-62
2023/04/28 04:11:53;;;;;;;6.43;4.47;;;8.50;99.90;;;;;;5074077;28;20081;-61
2023/04/28 04:14:18;;;;;;;8.17;4.33;;;8.50;99.90;;;;;;5073649;28;20029;-61
2023/04/28 04:16:47;;;;;;;10.00;4.80;;;8.50;99.90;;;;;;5072532;28;20028;-61
2023/04/28 04:19:13;;;;;;;9.15;4.60;;;8.50;99.90;;;;;;5066250;28;20021;-61
2023/04/28 04:21:38;;;;;;;10.13;4.53;;;8.50;99.90;;;;;;5065720;28;20052;-65
2023/04/28 04:24:05;;;;;;;9.20;4.33;;;8.50;99.90;;;;;;5072739;28;20036;-61
2023/04/28 04:26:30;;;;;;;10.13;4.40;;;8.50;99.90;;;;;;5072793;28;20032;-62
2023/04/28 04:28:56;;;;;;;7.07;4.32;;;8.50;99.90;;;;;;5072939;28;20052;-61
2023/04/28 04:31:22;;;;;;;7.80;4.40;;;8.50;99.90;;;;;;5070858;28;20029;-61
2023/04/28 04:33:48;;;;;;;9.83;4.37;;;8.50;99.90;;;;;;5074027;28;20017;-61
2023/04/28 04:36:14;;;;;;;14.37;4.73;;;8.60;99.90;;;;;;5073575;28;20024;-61
2023/04/28 04:38:40;;;;;;;6.30;3.93;;;8.60;99.90;;;;;;5071932;28;20411;-61
2023/04/28 04:41:05;;;;;;;8.30;4.60;;;8.60;99.90;;;;;;5063274;28;20025;-61
2023/04/28 04:43:31;;;;;;;8.87;4.07;;;8.60;99.90;;;;;;5070077;28;20116;-61
2023/04/28 04:45:57;;;;;;;8.53;4.47;;;8.60;99.90;;;;;;5073814;28;20028;-61
2023/04/28 04:48:23;;;;;;;7.43;3.93;;;8.60;99.90;;;;;;5073205;28;20029;-62
2023/04/28 04:50:48;;;;;;;7.13;3.70;;;8.70;99.90;;;;;;5060347;28;20029;-61
2023/04/28 04:53:14;;;;;;;10.37;4.43;;;8.70;99.90;;;;;;5066365;28;20035;-61
2023/04/28 04:55:40;;;;;;;8.17;4.10;;;8.60;99.90;;;;;;5077451;28;20043;-61
2023/04/28 04:58:06;;;;;;;9.53;4.70;;;8.60;99.90;;;;;;5077706;28;20031;-62
2023/04/28 05:00:32;;;;;;;7.83;4.37;;;8.70;99.90;;;;;;5073582;28;20021;-61
2023/04/28 05:02:58;;;;;;;8.15;4.13;;;8.70;99.90;;;;;;5076109;28;20027;-61
2023/04/28 05:05:24;;;;;;;7.82;4.07;;;8.70;99.90;;;;;;5076892;28;20032;-62
2023/04/28 05:07:50;;;;;;;5.93;3.60;;;8.70;99.90;;;;;;5074228;28;20032;-62
2023/04/28 05:10:16;;;;;;;8.60;4.07;;;8.60;99.90;;;;;;5070966;28;20253;-61
2023/04/28 05:12:43;;;;;;;7.00;4.28;;;8.70;99.90;;;;;;5074295;28;20352;-62
2023/04/28 05:15:09;;;;;;;6.40;4.03;;;8.70;99.90;;;;;;5075639;28;20073;-62
2023/04/28 05:17:35;;;;;;;12.27;4.00;;;8.70;99.90;;;;;;5077119;28;20382;-62
2023/04/28 05:20:01;;;;;;;10.48;4.35;;;8.70;99.90;;;;;;5071352;28;20021;-61
2023/04/28 05:22:27;;;;;;;8.47;4.27;;;8.80;99.90;;;;;;5072156;28;20024;-62
2023/04/28 05:24:52;;;;;;;7.83;4.20;;;8.80;99.90;;;;;;5075642;28;20115;-62
2023/04/28 05:27:18;;;;;;;10.97;5.00;;;8.80;99.90;;;;;;5075413;28;20403;-62
2023/04/28 05:29:44;;;;;;;9.03;5.20;;;8.70;99.90;;;;;;5071551;28;20442;-62
2023/04/28 05:32:10;;;;;;;11.70;5.43;;;8.70;99.90;;;;;;5075353;28;20035;-63
2023/04/28 05:34:35;;;;;;;12.50;5.40;;;8.50;99.90;;;;;;5065785;28;20029;-65
2023/04/28 05:37:01;;;;;;;7.33;4.47;;;8.40;99.90;;;;;;5070519;28;20108;-68
2023/04/28 05:39:27;;;;;;;10.00;4.87;;;8.30;99.90;;;;;;5067809;28;20304;-65
2023/04/28 05:41:52;;;;;;;9.70;4.77;;;8.20;99.90;;;;;;5062071;28;20017;-64
2023/04/28 05:44:18;;;;;;;11.27;5.60;;;8.10;99.90;;;;;;5071522;28;20634;-77
2023/04/28 05:46:43;;;;;;;15.73;5.95;;;8.10;99.90;;;;;;5075390;28;20107;-64
2023/04/28 05:49:10;;;;;;;8.57;5.28;;;8.00;99.90;;;;;;5066164;28;20410;-74
2023/04/28 05:51:36;;;;;;;12.73;5.38;;;7.90;99.90;;;;;;5071604;28;20043;-70
2023/04/28 05:54:02;;;;;;;11.00;6.03;;;7.80;99.90;;;;;;5067661;28;20032;-73
2023/04/28 05:56:28;;;;;;;10.30;5.37;;;7.80;99.90;;;;;;5075210;28;20104;-74
2023/04/28 05:58:54;;;;;;;10.48;6.13;;;7.70;99.90;;;;;;5074025;28;20025;-74
2023/04/28 06:01:21;;;;;;;9.70;5.93;;;7.60;99.90;;;;;;5071538;28;20055;-74
2023/04/28 06:03:46;;;;;;;;;;;7.60;99.90;;;;;;5076175;28;20074;-74
2023/04/28 06:06:12;;;;;;;11.43;5.70;;;7.60;99.90;;;;;;5074828;28;19942;-64
2023/04/28 06:08:38;;;;;;;13.07;5.40;;;7.60;99.90;;;;;;5076053;28;20407;-76
2023/04/28 06:11:04;;;;;;;9.20;6.03;;;7.60;99.90;;;;;;5075775;28;20086;-70
2023/04/28 06:13:29;;;;;;;13.85;6.90;;;7.60;99.90;;;;;;5066628;28;20112;-72
2023/04/28 06:15:56;;;;;;;14.87;7.30;;;7.70;99.90;;;;;;5070672;28;20476;-71
2023/04/28 06:18:23;;;;;;;11.25;6.55;;;7.70;99.90;;;;;;5072409;28;20066;-75
2023/04/28 06:20:49;;;;;;;13.25;7.50;;;7.80;99.90;;;;;;5074285;28;20059;-68
2023/04/28 06:23:15;;;;;;;14.20;8.35;;;7.90;99.90;;;;;;5073359;28;20153;-75
2023/04/28 06:25:40;;;;;;;15.17;7.13;;;7.90;99.90;;;;;;5073343;28;20040;-65
2023/04/28 06:28:06;;;;;;;16.23;8.67;;;7.90;99.90;;;;;;5071919;28;20323;-67
2023/04/28 06:30:33;;;;;;;12.33;7.20;;;8.00;99.90;;;;;;5071530;28;20048;-66
2023/04/28 06:32:59;;;;;;;18.05;7.85;;;8.00;99.90;;;;;;5060144;28;20332;-66
2023/04/28 06:35:25;;;;;;;15.47;6.90;;;8.10;99.90;;;;;;5072719;28;20033;-63
2023/04/28 06:37:51;;;;;;;12.80;7.55;;;8.20;99.90;;;;;;5065197;28;20029;-70
2023/04/28 06:40:17;;;;;;;11.50;6.93;;;8.10;99.90;;;;;;5059112;28;20036;-66
2023/04/28 06:42:43;;;;;;;13.40;6.67;;;8.20;99.90;;;;;;5062196;28;20035;-69
2023/04/28 06:45:09;;;;;;;13.30;6.97;;;8.30;99.90;;;;;;5059298;28;20454;-71
2023/04/28 06:47:36;;;;;;;11.60;6.70;;;8.30;99.90;;;;;;5066133;28;20029;-63
2023/04/28 06:50:02;;;;;;;14.60;7.25;;;8.30;99.90;;;;;;5063549;28;20361;-65
2023/04/28 06:52:29;;;;;;;15.63;7.60;;;8.40;99.90;;;;;;5057395;28;20102;-64
2023/04/28 06:54:55;;;;;;;13.00;7.03;;;8.50;99.90;;;;;;5067504;28;20346;-63
2023/04/28 06:57:20;;;;;;;14.37;7.90;;;8.50;99.90;;;;;;5062649;28;20028;-63
2023/04/28 06:59:46;;;;;;;13.97;7.53;;;8.60;99.90;;;;;;5059957;28;20355;-64
2023/04/28 07:02:12;;;;;;;14.57;7.27;;;8.60;99.90;;;;;;5072711;28;20046;-64
2023/04/28 07:04:38;;;;;;;15.13;8.00;;;8.80;99.90;;;;;;5075212;28;20315;-63
2023/04/28 07:07:07;;;;;;;14.17;7.93;;;8.90;99.90;;;;;;5066088;28;20033;-64
2023/04/28 07:09:33;;;;;;;12.63;6.70;;;8.90;99.90;;;;;;5074921;28;20386;-65
2023/04/28 07:11:59;;;;;;;12.18;7.90;;;8.90;99.90;;;;;;5074896;28;20067;-64
2023/04/28 07:14:25;;;;;;;12.33;7.20;;;9.00;99.90;;;;;;5074390;28;20366;-70
2023/04/28 07:16:50;;;;;;;11.87;7.50;;;9.10;99.90;;;;;;5075083;28;20024;-64
2023/04/28 07:19:16;;;;;;;17.23;8.02;;;9.10;99.90;;;;;;5070843;28;20025;-63
2023/04/28 07:21:43;;;;;;;12.47;7.27;;;9.10;99.90;;;;;;5074736;28;20074;-63
2023/04/28 07:24:09;;;;;;;13.40;7.10;;;9.20;99.90;;;;;;5075188;28;20036;-63
2023/04/28 07:26:35;;;;;;;13.30;7.03;;;9.20;99.90;;;;;;5074517;28;20031;-63
2023/04/28 07:29:00;;;;;;;12.20;7.27;;;9.30;99.90;;;;;;5074659;28;20040;-68
2023/04/28 07:31:27;;;;;;;17.27;8.83;;;9.30;99.90;;;;;;5074403;28;20020;-63
2023/04/28 07:33:53;;;;;;;13.38;7.80;;;9.40;99.90;;;;;;5074870;28;20107;-68
2023/04/28 07:36:20;;;;;;;11.97;8.33;;;9.50;99.90;;;;;;5074898;28;20035;-64
2023/04/28 07:38:45;;;;;;;13.32;7.78;;;9.50;99.90;;;;;;5074472;28;20676;-65
2023/04/28 07:41:11;;;;;;;12.87;7.93;;;9.60;99.90;;;;;;5074678;28;20036;-65
2023/04/28 07:43:37;;;;;;;15.10;7.57;;;9.60;99.90;;;;;;5074886;28;20023;-63
2023/04/28 07:46:03;;;;;;;18.05;7.53;;;9.70;99.90;;;;;;5074392;28;20052;-65
2023/04/28 07:48:29;;;;;;;14.37;8.50;;;9.70;99.90;;;;;;5064356;28;20125;-63
2023/04/28 07:50:55;;;;;;;14.30;8.73;;;9.80;99.90;;;;;;5057108;28;20419;-63
2023/04/28 07:53:21;;;;;;;16.47;8.47;;;9.80;99.90;;;;;;5054820;28;20017;-63
2023/04/28 07:55:46;;;;;;;12.67;7.73;;;9.90;99.90;;;;;;5054331;28;20053;-63
2023/04/28 07:58:12;;;;;;;12.13;8.27;;;10.00;99.90;;;;;;5055058;28;20033;-63
2023/04/28 08:00:38;;;;;;;17.20;9.40;;;10.00;99.90;;;;;;5054445;28;20052;-63
2023/04/28 08:03:03;;;;;;;17.93;9.23;;;10.10;99.90;;;;;;5054281;28;20060;-64
2023/04/28 08:05:30;;;;;;;15.60;8.73;;;10.10;99.90;;;;;;5054624;28;20032;-68
2023/04/28 08:07:56;;;;;;;14.98;8.50;;;10.20;99.90;;;;;;5054115;28;20032;-66
2023/04/28 08:10:22;;;;;;;16.77;9.03;;;10.30;99.90;;;;;;5055345;28;20041;-75
2023/04/28 08:12:48;;;;;;;17.97;9.00;;;10.40;99.90;;;;;;5056488;28;20017;-64
2023/04/28 08:15:13;;;;;;;13.43;8.60;;;10.40;99.90;;;;;;5062499;28;20028;-64
2023/04/28 08:17:40;;;;;;;14.40;8.90;;;10.50;99.90;;;;;;5093409;28;20025;-63
2023/04/28 08:20:06;;;;;;;18.33;9.68;;;10.50;99.90;;;;;;5054299;28;20028;-67
2023/04/28 08:22:32;;;;;;;17.70;8.40;;;10.60;99.90;;;;;;5054217;28;20052;-65
2023/04/28 08:24:57;;;;;;;20.10;9.20;;;10.60;99.90;;;;;;5060063;28;20036;-64
2023/04/28 08:27:24;;;;;;;15.80;8.73;;;10.60;99.90;;;;;;5068637;28;20025;-67
2023/04/28 08:29:50;;;;;;;;;;;10.70;99.90;;;;;;5058053;28;20201;-76
2023/04/28 08:32:16;;;;;;;17.35;9.73;;;10.70;99.90;;;;;;5058058;28;19912;-63
2023/04/28 08:34:42;;;;;;;14.87;8.43;;;10.80;99.90;;;;;;5058486;28;20051;-68
2023/04/28 08:37:08;;;;;;;15.43;9.23;;;10.80;99.90;;;;;;5058060;28;20029;-64
2023/04/28 08:39:34;;;;;;;21.00;10.27;;;10.90;99.90;;;;;;5058027;28;20320;-64
2023/04/28 08:42:03;;;;;;;17.77;9.30;;;11.00;99.90;;;;;;5057558;28;20082;-64
2023/04/28 08:44:38;;;;;;;14.48;9.43;;;11.10;99.90;;;;;;5090404;28;20033;-64
2023/04/28 08:47:12;;;;;;;16.85;9.80;;;11.20;99.90;;;;;;5057805;28;20021;-63
2023/04/28 08:49:39;;;;;;;21.00;10.05;;;11.20;99.90;;;;;;5057962;28;20052;-66
2023/04/28 08:52:16;;;;;;;14.95;10.10;;;11.30;99.90;;;;;;5057706;28;20032;-64
2023/04/28 08:54:43;;;;;;;20.83;10.52;;;11.30;99.90;;;;;;5058142;28;20104;-63
2023/04/28 08:57:09;;;;;;;20.45;10.80;;;11.40;99.90;;;;;;5057875;28;20027;-64
2023/04/28 08:59:41;;;;;;;19.98;11.30;;;11.40;99.90;;;;;;5056241;28;20025;-70
2023/04/28 09:02:10;;;;;;;23.67;11.35;;;11.40;99.90;;;;;;5057755;28;20360;-69
2023/04/28 09:04:37;;;;;;;16.83;10.48;;;11.50;99.90;;;;;;5057323;28;20040;-71
2023/04/28 09:07:03;;;;;;;;;;;11.50;99.90;;;;;;5056923;28;20021;-63
2023/04/28 09:09:29;;;;;;;16.97;9.87;;;11.50;99.90;;;;;;5057091;28;20219;-64
2023/04/28 09:12:00;;;;;;;19.23;11.50;;;11.50;99.90;;;;;;5057492;28;20060;-71
2023/04/28 09:14:27;;;;;;;15.98;10.90;;;11.60;99.90;;;;;;5057050;28;20061;-64
2023/04/28 09:16:52;;;;;;;19.80;10.65;;;11.50;99.90;;;;;;5057512;28;20079;-65
2023/04/28 09:19:18;;;;;;;19.20;11.47;;;11.60;99.90;;;;;;5057262;28;20025;-68
2023/04/28 09:21:48;;;;;;;18.83;11.20;;;11.60;99.90;;;;;;5069340;28;20032;-66
2023/04/28 09:24:33;;;;;;;19.20;11.68;;;11.60;99.90;;;;;;5075341;28;20120;-75
2023/04/28 09:27:01;;;;;;;19.83;11.68;;;11.60;99.90;;;;;;5060067;28;20028;-64
2023/04/28 09:29:27;;;;;;;25.92;14.30;;;11.70;99.90;;;;;;5059986;28;20068;-63
2023/04/28 09:31:53;;;;;;;18.48;12.32;;;11.80;99.90;;;;;;5074838;28;20062;-66
2023/04/28 09:34:21;;;;;;;22.73;13.03;;;11.70;99.90;;;;;;5075509;28;20024;-65
2023/04/28 09:36:47;;;;;;;20.92;12.63;;;11.70;99.90;;;;;;5069486;28;20071;-68
2023/04/28 09:39:13;;;;;;;44.90;22.77;;;11.80;99.90;;;;;;5068834;28;20021;-64
2023/04/28 09:41:40;;;;;;;24.47;14.53;;;11.70;99.90;;;;;;5070376;28;20087;-64
2023/04/28 09:44:20;;;;;;;23.30;14.10;;;11.80;99.90;;;;;;5074816;28;20071;-66
2023/04/28 09:46:46;;;;;;;29.38;16.50;;;11.80;99.90;;;;;;5068649;28;20100;-68
2023/04/28 09:49:13;;;;;;;31.70;18.25;;;11.90;99.90;;;;;;5072287;28;20107;-75
2023/04/28 09:51:39;;;;;;;27.05;15.38;;;11.90;99.90;;;;;;5065968;28;20029;-73
2023/04/28 09:54:06;;;;;;;35.80;26.50;;;12.00;99.90;;;;;;5070927;28;20048;-64
2023/04/28 09:56:37;;;;;;;44.05;35.88;;;12.10;99.90;;;;;;5069477;28;20028;-79
2023/04/28 09:59:03;;;;;;;41.28;31.30;;;12.20;99.90;;;;;;5060565;28;20017;-79
2023/04/28 10:01:39;;;;;;;30.33;17.95;;;12.30;99.90;;;;;;5063518;28;20061;-65
2023/04/28 10:04:06;;;;;;;26.75;18.35;;;12.40;99.90;;;;;;5074500;28;20043;-72
2023/04/28 10:06:35;;;;;;;;;;;12.40;99.90;;;;;;5071327;28;20074;-65
2023/04/28 10:09:02;;;;;;;23.35;14.43;;;12.50;99.90;;;;;;5065080;28;20004;-78
2023/04/28 10:11:29;;;;;;;29.88;18.80;;;12.50;99.90;;;;;;5070607;28;20056;-76
2023/04/28 10:13:55;;;;;;;24.48;16.35;;;12.60;99.90;;;;;;5063489;28;20033;-77
2023/04/28 10:16:22;;;;;;;31.07;18.40;;;12.60;99.90;;;;;;5059268;28;20020;-71
2023/04/28 10:18:49;;;;;;;25.95;17.42;;;12.70;99.90;;;;;;5091946;28;20373;-76
2023/04/28 10:21:17;;;;;;;27.70;15.88;;;12.70;99.90;;;;;;5060882;28;20033;-72
2023/04/28 10:24:21;;;;;;;39.72;25.13;;;12.80;99.90;;;;;;5063265;28;20041;-81
2023/04/28 10:27:04;;;;;;;31.83;20.67;;;12.80;99.90;;;;;;5005635;28;20037;-73
2023/04/28 10:29:32;;;;;;;22.45;17.02;;;12.90;99.90;;;;;;5007903;28;20038;-71
2023/04/28 10:32:16;;;;;;;26.50;16.75;;;12.90;99.90;;;;;;5020404;28;20467;-80
2023/04/28 10:34:43;;;;;;;23.38;15.00;;;13.00;99.90;;;;;;5002775;28;20021;-78
2023/04/28 10:37:09;;;;;;;22.15;15.50;;;13.00;99.90;;;;;;5007105;28;20033;-65
2023/04/28 10:39:35;;;;;;;25.50;16.15;;;13.10;99.90;;;;;;5034818;28;20040;-65
2023/04/28 10:42:02;;;;;;;25.45;16.80;;;13.10;99.90;;;;;;5031543;28;20396;-64
2023/04/28 10:44:27;;;;;;;25.35;17.35;;;13.10;99.90;;;;;;5026106;28;20029;-63
2023/04/28 10:47:08;;;;;;;25.27;16.17;;;13.20;99.90;;;;;;5020315;28;20080;-63
2023/04/28 10:49:56;;;;;;;23.13;14.23;;;13.20;99.90;;;;;;5016398;28;20034;-63
2023/04/28 10:52:37;;;;;;;23.75;17.00;;;13.30;99.90;;;;;;4999087;28;20476;-64
2023/04/28 10:55:36;;;;;;;22.13;14.20;;;13.40;99.90;;;;;;5020766;28;20052;-77
2023/04/28 10:58:29;;;;;;;18.67;12.25;;;13.40;99.90;;;;;;5030434;28;20379;-63
2023/04/28 11:01:18;;;;;;;21.70;14.45;;;13.30;99.90;;;;;;5016806;28;20029;-64
2023/04/28 11:04:06;;;;;;;19.83;14.20;;;13.40;99.90;;;;;;5056832;28;20028;-63
2023/04/28 11:06:33;;;;;;;21.20;13.02;;;13.40;99.90;;;;;;5073184;28;20078;-64
2023/04/28 11:09:00;;;;;;;;;;;13.40;99.90;;;;;;5071176;28;20032;-64
2023/04/28 11:11:27;;;;;;;17.65;11.65;;;13.30;99.90;;;;;;5067023;28;20287;-65
2023/04/28 11:14:14;;;;;;;20.10;12.20;;;13.30;99.90;;;;;;5057801;28;20024;-64
2023/04/28 11:17:01;;;;;;;19.38;12.18;;;13.30;99.90;;;;;;5055369;28;20362;-64
2023/04/28 11:19:32;;;;;;;22.27;13.98;;;13.40;99.90;;;;;;5057212;28;20111;-64
2023/04/28 11:22:01;;;;;;;21.90;13.93;;;13.40;99.90;;;;;;5056485;28;20021;-64
2023/04/28 11:24:28;;;;;;;22.10;14.45;;;13.40;99.90;;;;;;5057147;28;20083;-64
2023/04/28 11:26:55;;;;;;;21.83;14.05;;;13.40;99.90;;;;;;5057462;28;20028;-64
2023/04/28 11:29:38;;;;;;;28.52;17.08;;;13.40;99.90;;;;;;5058702;28;20036;-64
2023/04/28 11:32:05;;;;;;;26.48;17.63;;;13.40;99.90;;;;;;5058422;28;20029;-64
2023/04/28 11:34:31;;;;;;;28.25;17.80;;;13.50;99.90;;;;;;5071057;28;20025;-64
2023/04/28 11:36:58;;;;;;;30.38;18.80;;;13.50;99.90;;;;;;5072437;28;20024;-64
2023/04/28 11:39:28;;;;;;;31.70;18.80;;;13.50;99.90;;;;;;5059564;28;20071;-64
2023/04/28 11:41:53;;;;;;;31.42;19.00;;;13.50;99.90;;;;;;5057607;28;20029;-64
2023/04/28 11:44:21;;;;;;;29.27;18.43;;;13.50;99.90;;;;;;5067471;28;20037;-64
2023/04/28 11:46:54;;;;;;;27.60;17.70;;;13.50;99.90;;;;;;5058783;28;20316;-64
2023/04/28 11:49:23;;;;;;;29.38;17.30;;;13.60;99.90;;;;;;5055123;28;20013;-63
2023/04/28 11:51:49;;;;;;;23.77;15.30;;;13.80;99.90;;;;;;5068152;28;20075;-64
2023/04/28 11:54:24;;;;;;;27.92;17.20;;;13.90;99.90;;;;;;5060881;28;20485;-64
2023/04/28 11:56:52;;;;;;;16.75;10.45;;;14.00;99.90;;;;;;5058899;28;20067;-64
2023/04/28 11:59:24;;;;;;;9.48;6.13;;;14.20;99.90;;;;;;5066132;28;20020;-64
2023/04/28 12:01:51;;;;;;;8.93;4.85;;;14.20;99.90;;;;;;5070893;28;20047;-81
2023/04/28 12:04:36;;;;;;;8.02;4.72;;;14.40;99.90;;;;;;5070254;28;20028;-80
2023/04/28 12:07:17;;;;;;;7.35;3.72;;;14.50;99.90;;;;;;5084537;28;20033;-76
2023/04/28 12:09:45;;;;;;;6.80;3.83;;;14.60;99.90;;;;;;5083825;28;20026;-79
2023/04/28 12:12:13;;;;;;;5.78;3.50;;;14.50;99.90;;;;;;5082272;28;20297;-79
2023/04/28 12:15:05;;;;;;;7.05;3.10;;;14.50;99.90;;;;;;5069786;28;20028;-77
2023/04/28 12:17:36;;;;;;;4.95;3.00;;;14.40;99.90;;;;;;5100605;28;20105;-75
2023/04/28 12:20:10;;;;;;;4.35;2.55;;;14.30;99.90;;;;;;5071564;28;20411;-76
2023/04/28 12:22:47;;;;;;;5.03;3.13;;;14.30;99.90;;;;;;5074809;28;20446;-75
2023/04/28 12:25:15;;;;;;;;;;;14.20;99.90;;;;;;5071454;28;20035;-77
2023/04/28 12:27:56;;;;;;;6.82;3.20;;;14.20;99.90;;;;;;5071365;28;19912;-78
2023/04/28 12:30:22;;;;;;;6.97;3.33;;;14.20;99.90;;;;;;5087168;28;20072;-78
2023/04/28 12:32:48;;;;;;;5.83;3.93;;;14.20;99.90;;;;;;5076027;28;20041;-80
2023/04/28 12:35:14;;;;;;;10.80;4.40;;;14.10;99.90;;;;;;5071632;28;20036;-77
2023/04/28 12:37:41;;;;;;;8.73;5.32;;;14.20;99.90;;;;;;5071791;28;20035;-77
2023/04/28 12:40:08;;;;;;;8.80;4.80;;;14.20;99.90;;;;;;5073314;28;20031;-77
2023/04/28 12:42:34;;;;;;;6.85;4.40;;;14.20;99.90;;;;;;5072111;28;20112;-78
2023/04/28 12:45:00;;;;;;;9.45;4.95;;;14.20;99.90;;;;;;5071251;28;20064;-78
2023/04/28 12:47:26;;;;;;;8.68;3.88;;;14.30;99.90;;;;;;5070020;28;20099;-76
2023/04/28 12:49:52;;;;;;;7.40;4.43;;;14.30;99.90;;;;;;5076213;28;20496;-79